sensor_id;sensor_type;location;lat;lon;timestamp;temperature;humidity
10441;DHT22;5268;49.346;9.522;2023-07-22T03:07:06;16.00;99.10
10441;DHT22;5268;49.346;9.522;2023-07-22T03:12:09;16.00;97.80
10441;DHT22;5268;49.346;9.522;2023-07-22T03:17:11;15.90;97.40
10441;DHT22;5268;49.346;9.522;2023-07-22T03:22:16;15.90;97.00
10441;DHT22;5268;49.346;9.522;2023-07-22T03:27:18;15.80;97.00
10441;DHT22;5268;49.346;9.522;2023-07-22T03:32:20;15.80;97.10
10441;DHT22;5268;49.346;9.522;2023-07-22T03:37:24;15.80;97.40
10441;DHT22;5268;49.346;9.522;2023-07-22T03:42:26;15.80;97.00
10441;DHT22;5268;49.346;9.522;2023-07-22T03:47:28;15.80;97.40
10441;DHT22;5268;49.346;9.522;2023-07-22T03:52:32;15.80;97.90
10441;DHT22;5268;49.346;9.522;2023-07-22T03:57:34;15.80;98.80
10441;DHT22;5268;49.346;9.522;2023-07-22T04:02:36;15.80;97.80
10441;DHT22;5268;49.346;9.522;2023-07-22T04:07:40;15.90;97.40
10441;DHT22;5268;49.346;9.522;2023-07-22T04:12:42;15.90;97.70
10441;DHT22;5268;49.346;9.522;2023-07-22T04:17:44;15.90;98.10
10441;DHT22;5268;49.346;9.522;2023-07-22T04:22:48;16.00;97.70
10441;DHT22;5268;49.346;9.522;2023-07-22T04:27:50;16.00;99.80
10441;DHT22;5268;49.346;9.522;2023-07-22T04:32:52;15.90;99.90
10441;DHT22;5268;49.346;9.522;2023-07-22T04:37:56;15.90;99.90
10441;DHT22;5268;49.346;9.522;2023-07-22T04:42:58;15.90;98.70
10441;DHT22;5268;49.346;9.522;2023-07-22T04:48:00;15.90;99.90
10441;DHT22;5268;49.346;9.522;2023-07-22T04:53:04;15.90;99.90
10441;DHT22;5268;49.346;9.522;2023-07-22T04:58:06;15.80;99.90
10441;DHT22;5268;49.346;9.522;2023-07-22T05:03:08;15.70;99.90
10441;DHT22;5268;49.346;9.522;2023-07-22T05:08:12;15.70;99.90
10441;DHT22;5268;49.346;9.522;2023-07-22T05:13:14;15.70;99.90
10441;DHT22;5268;49.346;9.522;2023-07-22T05:18:17;15.80;99.90
10441;DHT22;5268;49.346;9.522;2023-07-22T05:23:20;16.00;99.90
10441;DHT22;5268;49.346;9.522;2023-07-22T05:28:22;16.10;99.90
10441;DHT22;5268;49.346;9.522;2023-07-22T05:33:24;16.30;99.90
10441;DHT22;5268;49.346;9.522;2023-07-22T05:38:28;16.40;99.90
10441;DHT22;5268;49.346;9.522;2023-07-22T05:43:33;16.50;99.90
10441;DHT22;5268;49.346;9.522;2023-07-22T05:48:35;16.50;99.90
10441;DHT22;5268;49.346;9.522;2023-07-22T05:53:38;16.60;99.90
10441;DHT22;5268;49.346;9.522;2023-07-22T05:58:41;16.50;99.90
10441;DHT22;5268;49.346;9.522;2023-07-22T06:03:43;16.40;99.90
10441;DHT22;5268;49.346;9.522;2023-07-22T06:08:47;16.50;99.90
10441;DHT22;5268;49.346;9.522;2023-07-22T06:13:49;16.60;99.90
10441;DHT22;5268;49.346;9.522;2023-07-22T06:18:51;16.80;99.90
10441;DHT22;5268;49.346;9.522;2023-07-22T06:23:54;17.00;99.90
10441;DHT22;5268;49.346;9.522;2023-07-22T06:28:58;17.20;99.90
10441;DHT22;5268;49.346;9.522;2023-07-22T06:34:00;17.60;99.90
10441;DHT22;5268;49.346;9.522;2023-07-22T06:39:03;17.80;99.90
10441;DHT22;5268;49.346;9.522;2023-07-22T06:44:05;18.10;99.90
10441;DHT22;5268;49.346;9.522;2023-07-22T06:49:07;18.40;99.90
10441;DHT22;5268;49.346;9.522;2023-07-22T06:54:11;18.80;99.90
10441;DHT22;5268;49.346;9.522;2023-07-22T06:59:13;19.00;99.90
10441;DHT22;5268;49.346;9.522;2023-07-22T07:04:15;19.30;99.90
10441;DHT22;5268;49.346;9.522;2023-07-22T07:09:18;19.70;99.90
10441;DHT22;5268;49.346;9.522;2023-07-22T07:14:20;19.90;99.90
10441;DHT22;5268;49.346;9.522;2023-07-22T07:19:22;20.10;99.90
10441;DHT22;5268;49.346;9.522;2023-07-22T07:24:25;20.20;99.90
10441;DHT22;5268;49.346;9.522;2023-07-22T07:29:28;20.30;99.90
10441;DHT22;5268;49.346;9.522;2023-07-22T07:34:30;20.40;99.90
10441;DHT22;5268;49.346;9.522;2023-07-22T07:39:34;20.50;99.90
10441;DHT22;5268;49.346;9.522;2023-07-22T07:44:36;20.60;99.90
10441;DHT22;5268;49.346;9.522;2023-07-22T07:49:38;20.70;99.90
10441;DHT22;5268;49.346;9.522;2023-07-22T07:54:42;20.70;99.90
10441;DHT22;5268;49.346;9.522;2023-07-22T07:59:44;20.70;99.90
10441;DHT22;5268;49.346;9.522;2023-07-22T08:04:52;20.90;99.90
10441;DHT22;5268;49.346;9.522;2023-07-22T08:09:56;21.00;99.90
10441;DHT22;5268;49.346;9.522;2023-07-22T08:14:59;21.20;99.90
10441;DHT22;5268;49.346;9.522;2023-07-22T08:20:01;21.90;99.90
10441;DHT22;5268;49.346;9.522;2023-07-22T08:25:07;22.50;99.90
10441;DHT22;5268;49.346;9.522;2023-07-22T08:30:10;22.70;99.90
10441;DHT22;5268;49.346;9.522;2023-07-22T08:35:12;22.80;99.90
10441;DHT22;5268;49.346;9.522;2023-07-22T08:40:16;22.80;98.20
10441;DHT22;5268;49.346;9.522;2023-07-22T08:45:20;23.00;98.70
10441;DHT22;5268;49.346;9.522;2023-07-22T08:50:29;23.40;98.90
10441;DHT22;5268;49.346;9.522;2023-07-22T08:55:33;23.60;97.10
10441;DHT22;5268;49.346;9.522;2023-07-22T09:00:36;23.90;97.50
10441;DHT22;5268;49.346;9.522;2023-07-22T09:05:39;24.00;97.70
10441;DHT22;5268;49.346;9.522;2023-07-22T09:10:44;23.70;95.80
10441;DHT22;5268;49.346;9.522;2023-07-22T09:15:47;23.60;93.90
10441;DHT22;5268;49.346;9.522;2023-07-22T09:20:50;23.80;95.60
10441;DHT22;5268;49.346;9.522;2023-07-22T09:26:08;24.10;95.90
10441;DHT22;5268;49.346;9.522;2023-07-22T09:31:13;24.40;96.30
10441;DHT22;5268;49.346;9.522;2023-07-22T09:36:17;24.80;95.70
10441;DHT22;5268;49.346;9.522;2023-07-22T09:41:21;24.90;95.40
10441;DHT22;5268;49.346;9.522;2023-07-22T09:46:31;25.00;94.30
10441;DHT22;5268;49.346;9.522;2023-07-22T09:51:35;25.10;93.80
10441;DHT22;5268;49.346;9.522;2023-07-22T09:56:46;25.30;95.00
10441;DHT22;5268;49.346;9.522;2023-07-22T10:01:48;25.60;93.80
10441;DHT22;5268;49.346;9.522;2023-07-22T10:06:52;25.90;95.00
10441;DHT22;5268;49.346;9.522;2023-07-22T10:11:55;26.20;95.10
10441;DHT22;5268;49.346;9.522;2023-07-22T10:16:59;26.30;93.70
10441;DHT22;5268;49.346;9.522;2023-07-22T10:22:02;26.30;94.60
10441;DHT22;5268;49.346;9.522;2023-07-22T10:27:07;26.30;92.50
10441;DHT22;5268;49.346;9.522;2023-07-22T10:32:09;26.40;92.40
10441;DHT22;5268;49.346;9.522;2023-07-22T10:37:11;26.40;87.30
10441;DHT22;5268;49.346;9.522;2023-07-22T10:42:24;26.70;92.00
10441;DHT22;5268;49.346;9.522;2023-07-22T10:47:33;26.60;86.40
10441;DHT22;5268;49.346;9.522;2023-07-22T10:52:42;26.60;90.70
10441;DHT22;5268;49.346;9.522;2023-07-22T10:57:54;26.80;92.50
10441;DHT22;5268;49.346;9.522;2023-07-22T11:03:12;27.00;91.40
10441;DHT22;5268;49.346;9.522;2023-07-22T11:08:15;27.10;82.20
10441;DHT22;5268;49.346;9.522;2023-07-22T11:13:26;27.20;90.20
10441;DHT22;5268;49.346;9.522;2023-07-22T11:18:36;27.20;88.80
10441;DHT22;5268;49.346;9.522;2023-07-22T11:23:40;27.10;89.70
10441;DHT22;5268;49.346;9.522;2023-07-22T11:28:46;27.00;89.00
10441;DHT22;5268;49.346;9.522;2023-07-22T11:33:48;27.10;88.50
10441;DHT22;5268;49.346;9.522;2023-07-22T11:38:50;27.10;89.00
10441;DHT22;5268;49.346;9.522;2023-07-22T11:43:56;27.00;90.40
10441;DHT22;5268;49.346;9.522;2023-07-22T11:48:58;27.00;90.30
10441;DHT22;5268;49.346;9.522;2023-07-22T11:54:01;27.00;89.50
10441;DHT22;5268;49.346;9.522;2023-07-22T11:59:04;27.10;90.20
10441;DHT22;5268;49.346;9.522;2023-07-22T12:04:11;27.30;89.30
10441;DHT22;5268;49.346;9.522;2023-07-22T12:09:13;27.20;88.50
10441;DHT22;5268;49.346;9.522;2023-07-22T12:14:17;27.00;89.80
10441;DHT22;5268;49.346;9.522;2023-07-22T12:19:19;27.00;90.00
10441;DHT22;5268;49.346;9.522;2023-07-22T12:24:21;27.10;87.10
10441;DHT22;5268;49.346;9.522;2023-07-22T12:29:25;27.20;87.10
10441;DHT22;5268;49.346;9.522;2023-07-22T12:34:27;27.20;88.20
10441;DHT22;5268;49.346;9.522;2023-07-22T12:39:30;27.20;87.50
10441;DHT22;5268;49.346;9.522;2023-07-22T12:44:34;27.30;87.50
10441;DHT22;5268;49.346;9.522;2023-07-22T12:49:36;27.30;82.50
10441;DHT22;5268;49.346;9.522;2023-07-22T12:54:38;27.10;84.40
10441;DHT22;5268;49.346;9.522;2023-07-22T12:59:42;26.80;79.10
10441;DHT22;5268;49.346;9.522;2023-07-22T13:04:44;27.00;86.20
10441;DHT22;5268;49.346;9.522;2023-07-22T13:09:46;27.20;86.20
10441;DHT22;5268;49.346;9.522;2023-07-22T13:14:51;27.30;86.00
10441;DHT22;5268;49.346;9.522;2023-07-22T13:19:53;27.40;85.10
10441;DHT22;5268;49.346;9.522;2023-07-22T13:24:55;27.40;84.60
10441;DHT22;5268;49.346;9.522;2023-07-22T13:30:04;27.30;76.50
10441;DHT22;5268;49.346;9.522;2023-07-22T13:35:07;27.20;82.00
10441;DHT22;5268;49.346;9.522;2023-07-22T13:40:10;27.10;77.70
10441;DHT22;5268;49.346;9.522;2023-07-22T13:45:14;27.10;81.70
10441;DHT22;5268;49.346;9.522;2023-07-22T13:50:16;27.10;82.30
10441;DHT22;5268;49.346;9.522;2023-07-22T13:55:24;27.10;83.00
10441;DHT22;5268;49.346;9.522;2023-07-22T14:00:28;27.00;82.80
10441;DHT22;5268;49.346;9.522;2023-07-22T14:05:30;27.00;82.60
10441;DHT22;5268;49.346;9.522;2023-07-22T14:10:35;27.10;81.70
10441;DHT22;5268;49.346;9.522;2023-07-22T14:15:39;27.20;81.10
10441;DHT22;5268;49.346;9.522;2023-07-22T14:20:41;27.30;80.00
10441;DHT22;5268;49.346;9.522;2023-07-22T14:25:44;27.40;78.00
10441;DHT22;5268;49.346;9.522;2023-07-22T14:30:47;27.40;79.30
10441;DHT22;5268;49.346;9.522;2023-07-22T14:35:49;27.50;77.70
10441;DHT22;5268;49.346;9.522;2023-07-22T14:40:55;27.50;76.20
10441;DHT22;5268;49.346;9.522;2023-07-22T14:45:58;27.50;78.10
10441;DHT22;5268;49.346;9.522;2023-07-22T14:51:03;27.50;75.30
10441;DHT22;5268;49.346;9.522;2023-07-22T14:56:06;27.50;79.10
10441;DHT22;5268;49.346;9.522;2023-07-22T15:01:10;27.50;79.50
10441;DHT22;5268;49.346;9.522;2023-07-22T15:06:12;27.60;78.80
10441;DHT22;5268;49.346;9.522;2023-07-22T15:11:14;27.70;79.60
10441;DHT22;5268;49.346;9.522;2023-07-22T15:16:18;27.70;78.00
10441;DHT22;5268;49.346;9.522;2023-07-22T15:21:20;27.70;78.10
10441;DHT22;5268;49.346;9.522;2023-07-22T15:26:22;27.60;76.30
10441;DHT22;5268;49.346;9.522;2023-07-22T15:31:28;27.50;77.10
10441;DHT22;5268;49.346;9.522;2023-07-22T15:36:31;27.50;76.80
10441;DHT22;5268;49.346;9.522;2023-07-22T15:41:33;27.40;76.40
10441;DHT22;5268;49.346;9.522;2023-07-22T15:46:36;27.30;76.30
10441;DHT22;5268;49.346;9.522;2023-07-22T15:51:38;27.10;76.80
10441;DHT22;5268;49.346;9.522;2023-07-22T15:56:47;27.10;77.70
10441;DHT22;5268;49.346;9.522;2023-07-22T16:01:54;27.00;76.10
10441;DHT22;5268;49.346;9.522;2023-07-22T16:06:56;27.00;76.60
10441;DHT22;5268;49.346;9.522;2023-07-22T16:11:58;27.00;76.70
10441;DHT22;5268;49.346;9.522;2023-07-22T16:17:01;26.90;76.00
10441;DHT22;5268;49.346;9.522;2023-07-22T16:22:03;26.80;74.50
10441;DHT22;5268;49.346;9.522;2023-07-22T16:27:05;26.80;76.30
10441;DHT22;5268;49.346;9.522;2023-07-22T16:32:09;26.60;73.70
10441;DHT22;5268;49.346;9.522;2023-07-22T16:37:11;26.50;75.90
10441;DHT22;5268;49.346;9.522;2023-07-22T16:42:13;26.30;73.20
10441;DHT22;5268;49.346;9.522;2023-07-22T16:47:17;26.20;75.70
10441;DHT22;5268;49.346;9.522;2023-07-22T16:52:19;26.20;76.70
10441;DHT22;5268;49.346;9.522;2023-07-22T16:57:21;26.20;78.10
10441;DHT22;5268;49.346;9.522;2023-07-22T17:02:24;26.30;77.50
10441;DHT22;5268;49.346;9.522;2023-07-22T17:07:27;26.30;76.00
10441;DHT22;5268;49.346;9.522;2023-07-22T17:12:29;26.30;76.80
10441;DHT22;5268;49.346;9.522;2023-07-22T17:17:32;26.30;77.30
10441;DHT22;5268;49.346;9.522;2023-07-22T17:22:35;26.20;76.10
10441;DHT22;5268;49.346;9.522;2023-07-22T17:27:37;26.20;73.90
10441;DHT22;5268;49.346;9.522;2023-07-22T17:32:40;26.10;76.00
10441;DHT22;5268;49.346;9.522;2023-07-22T17:37:42;26.00;76.30
10441;DHT22;5268;49.346;9.522;2023-07-22T17:42:44;25.90;77.30
10441;DHT22;5268;49.346;9.522;2023-07-22T17:47:48;25.80;76.30
10441;DHT22;5268;49.346;9.522;2023-07-22T17:52:50;25.80;76.60
10441;DHT22;5268;49.346;9.522;2023-07-22T17:57:52;25.70;76.80
10441;DHT22;5268;49.346;9.522;2023-07-22T18:02:55;25.70;77.50
10441;DHT22;5268;49.346;9.522;2023-07-22T18:07:57;25.60;77.30
10441;DHT22;5268;49.346;9.522;2023-07-22T18:12:59;25.60;78.00
10441;DHT22;5268;49.346;9.522;2023-07-22T18:18:03;25.50;78.00
10441;DHT22;5268;49.346;9.522;2023-07-22T18:23:05;25.50;78.20
10441;DHT22;5268;49.346;9.522;2023-07-22T18:28:07;25.40;77.60
10441;DHT22;5268;49.346;9.522;2023-07-22T18:33:10;25.20;76.70
10441;DHT22;5268;49.346;9.522;2023-07-22T18:38:12;25.10;77.20
10441;DHT22;5268;49.346;9.522;2023-07-22T18:43:15;25.00;78.00
10441;DHT22;5268;49.346;9.522;2023-07-22T18:48:18;24.90;78.00
10441;DHT22;5268;49.346;9.522;2023-07-22T18:53:20;24.80;78.20
10441;DHT22;5268;49.346;9.522;2023-07-22T18:58:22;24.80;78.10
10441;DHT22;5268;49.346;9.522;2023-07-22T19:03:26;24.60;78.20
10441;DHT22;5268;49.346;9.522;2023-07-22T19:08:28;24.50;78.60
10441;DHT22;5268;49.346;9.522;2023-07-22T19:13:30;24.40;78.70
10441;DHT22;5268;49.346;9.522;2023-07-22T19:18:33;24.30;78.70
10441;DHT22;5268;49.346;9.522;2023-07-22T19:23:35;24.10;78.60
10441;DHT22;5268;49.346;9.522;2023-07-22T19:28:37;24.00;78.60
10441;DHT22;5268;49.346;9.522;2023-07-22T19:33:41;23.70;78.80
10441;DHT22;5268;49.346;9.522;2023-07-22T19:38:43;23.60;79.20
10441;DHT22;5268;49.346;9.522;2023-07-22T19:43:45;23.40;79.40
10441;DHT22;5268;49.346;9.522;2023-07-22T19:48:48;23.30;79.40
10441;DHT22;5268;49.346;9.522;2023-07-22T19:53:50;23.10;79.70
10441;DHT22;5268;49.346;9.522;2023-07-22T19:58:52;22.90;79.80
10441;DHT22;5268;49.346;9.522;2023-07-22T20:03:56;22.70;79.90
10441;DHT22;5268;49.346;9.522;2023-07-22T20:08:58;22.60;80.10
10441;DHT22;5268;49.346;9.522;2023-07-22T20:14:00;22.40;80.20
10441;DHT22;5268;49.346;9.522;2023-07-22T20:19:06;22.20;80.70
10441;DHT22;5268;49.346;9.522;2023-07-22T20:24:08;22.00;80.80
10441;DHT22;5268;49.346;9.522;2023-07-22T20:29:10;21.90;80.70
10441;DHT22;5268;49.346;9.522;2023-07-22T20:34:14;21.70;80.50
10441;DHT22;5268;49.346;9.522;2023-07-22T20:39:16;21.60;80.60
10441;DHT22;5268;49.346;9.522;2023-07-22T20:44:20;21.40;81.60
10441;DHT22;5268;49.346;9.522;2023-07-22T20:49:24;21.30;81.90
10441;DHT22;5268;49.346;9.522;2023-07-22T20:54:26;21.10;81.60
10441;DHT22;5268;49.346;9.522;2023-07-22T20:59:28;21.10;82.00
10441;DHT22;5268;49.346;9.522;2023-07-22T21:04:31;20.90;82.10
10441;DHT22;5268;49.346;9.522;2023-07-22T21:09:33;20.70;82.20
10441;DHT22;5268;49.346;9.522;2023-07-22T21:14:35;20.60;82.70
10441;DHT22;5268;49.346;9.522;2023-07-22T21:19:39;20.50;82.30
10441;DHT22;5268;49.346;9.522;2023-07-22T21:24:41;20.40;82.50
10441;DHT22;5268;49.346;9.522;2023-07-22T21:29:43;20.30;82.30
10441;DHT22;5268;49.346;9.522;2023-07-22T21:34:47;20.10;84.10
10441;DHT22;5268;49.346;9.522;2023-07-22T21:39:49;20.00;83.10
10441;DHT22;5268;49.346;9.522;2023-07-22T21:44:51;19.90;83.50
10441;DHT22;5268;49.346;9.522;2023-07-22T21:49:54;19.80;83.60
10441;DHT22;5268;49.346;9.522;2023-07-22T21:54:56;19.70;84.20
